Time;durP1;ratioP1;P1;durP2;ratioP2;P2;SDS_P1;SDS_P2;PMS_P1;PMS_P2;Temp;Humidity;BMP_temperature;BMP_pressure;BME280_temperature;BME280_humidity;BME280_pressure;Samples;Min_cycle;Max_cycle;Signal;HPM_P1;HPM_P2
2023/09/16 00:00:25;;;;;;;10.57;9.80;;;21.40;54.70;;;;;;20824;6746;117858;-74
2023/09/16 00:03:00;;;;;;;12.40;11.60;;;21.40;54.10;;;;;;20736;6723;299940;-74
2023/09/16 00:05:38;;;;;;;10.20;9.60;;;21.60;54.00;;;;;;20906;6738;117500;-75
2023/09/16 00:08:11;;;;;;;10.77;10.07;;;21.40;54.00;;;;;;20725;6723;277655;-74
2023/09/16 00:10:47;;;;;;;11.12;10.43;;;21.60;54.10;;;;;;20571;6738;309561;-74
2023/09/16 00:13:22;;;;;;;11.63;10.90;;;21.90;53.40;;;;;;20789;6713;276206;-75
2023/09/16 00:15:59;;;;;;;10.98;10.27;;;22.20;52.70;;;;;;20749;6722;305700;-75
2023/09/16 00:18:38;;;;;;;8.67;7.87;;;22.20;52.70;;;;;;20930;6729;117781;-75
2023/09/16 00:21:10;;;;;;;9.53;8.90;;;21.90;52.90;;;;;;20827;6734;117858;-74
2023/09/16 00:23:46;;;;;;;10.33;9.60;;;21.50;53.40;;;;;;20729;6730;305888;-74
2023/09/16 00:26:21;;;;;;;9.68;8.98;;;21.60;53.50;;;;;;20625;6728;308019;-74
2023/09/16 00:28:57;;;;;;;9.17;8.57;;;21.80;53.00;;;;;;20679;6733;298265;-75
2023/09/16 00:31:33;;;;;;;8.27;7.67;;;22.10;52.70;;;;;;20778;6748;118293;-74
2023/09/16 00:34:08;;;;;;;8.30;7.80;;;22.00;53.00;;;;;;20802;6749;119280;-74
2023/09/16 00:36:44;;;;;;;8.90;8.27;;;21.70;53.40;;;;;;20823;6762;118774;-74
2023/09/16 00:39:19;;;;;;;10.33;9.73;;;21.50;53.90;;;;;;20716;6730;277492;-75
2023/09/16 00:42:46;;;;;;;9.48;8.88;;;21.70;53.80;;;;;;20583;6720;298411;-75
2023/09/16 00:45:22;;;;;;;9.87;9.27;;;22.10;53.20;;;;;;20931;6734;117396;-74
2023/09/16 00:47:57;;;;;;;7.70;7.07;;;21.80;53.10;;;;;;20927;6733;117434;-74
2023/09/16 00:50:33;;;;;;;8.90;8.27;;;21.60;53.70;;;;;;20611;6746;307537;-75
2023/09/16 00:53:09;;;;;;;8.00;7.40;;;21.70;53.60;;;;;;20850;6747;117130;-74
2023/09/16 00:55:44;;;;;;;7.87;7.23;;;21.70;53.60;;;;;;20825;6764;117614;-74
2023/09/16 00:58:20;;;;;;;10.83;10.17;;;21.50;53.90;;;;;;20597;6762;277292;-75
2023/09/16 01:00:57;;;;;;;10.40;9.70;;;21.60;53.30;;;;;;20750;6766;119357;-74
2023/09/16 01:03:35;;;;;;;10.32;9.63;;;21.40;53.40;;;;;;20632;6758;306574;-74
2023/09/16 01:06:10;;;;;;;9.17;8.57;;;21.60;53.50;;;;;;20554;6743;314059;-74
2023/09/16 01:08:44;;;;;;;8.37;7.87;;;21.80;53.20;;;;;;20651;6749;283450;-74
2023/09/16 01:11:19;;;;;;;9.80;9.20;;;22.10;52.80;;;;;;20499;6761;342421;-74
2023/09/16 01:13:55;;;;;;;8.73;7.93;;;22.30;52.10;;;;;;20840;6754;117145;-74
2023/09/16 01:16:44;;;;;;;8.70;8.00;;;22.00;52.30;;;;;;20846;6762;117407;-74
2023/09/16 01:19:19;;;;;;;8.33;7.60;;;21.50;52.90;;;;;;20831;6746;117086;-74
2023/09/16 01:21:55;;;;;;;8.70;8.10;;;21.20;53.70;;;;;;20653;6767;117893;-74
2023/09/16 01:24:31;;;;;;;8.20;7.60;;;20.90;54.00;;;;;;20906;6730;117428;-74
2023/09/16 01:27:07;;;;;;;7.53;7.03;;;20.70;54.10;;;;;;20832;6750;119219;-74
2023/09/16 01:29:41;;;;;;;8.20;7.60;;;20.50;54.50;;;;;;20725;6769;117190;-74
2023/09/16 01:32:17;;;;;;;9.70;9.10;;;20.50;54.80;;;;;;20482;6788;309665;-74
2023/09/16 01:34:52;;;;;;;9.13;8.40;;;20.80;54.40;;;;;;20837;6759;118125;-74
2023/09/16 01:37:28;;;;;;;7.90;7.30;;;20.80;54.30;;;;;;20817;6766;118523;-74
2023/09/16 01:40:11;;;;;;;8.70;8.00;;;20.60;54.60;;;;;;20682;6781;118590;-74
2023/09/16 01:42:47;;;;;;;8.63;8.02;;;20.50;54.90;;;;;;20590;6752;337870;-74
2023/09/16 01:45:22;;;;;;;8.33;7.83;;;20.80;54.30;;;;;;20775;6764;117060;-74
2023/09/16 01:47:58;;;;;;;9.47;8.77;;;20.90;54.10;;;;;;20698;6735;275829;-74
2023/09/16 01:50:35;;;;;;;9.35;8.70;;;21.20;53.60;;;;;;20620;6735;311494;-74
2023/09/16 01:53:09;;;;;;;9.37;8.67;;;21.50;52.80;;;;;;20820;6766;118067;-74
2023/09/16 01:55:45;;;;;;;8.77;7.97;;;21.40;52.80;;;;;;20816;6766;118874;-74
2023/09/16 01:58:20;;;;;;;8.37;7.87;;;21.10;53.30;;;;;;20800;6766;117120;-76
2023/09/16 02:00:56;;;;;;;10.03;9.43;;;20.90;53.80;;;;;;20532;6765;278887;-75
2023/09/16 02:03:32;;;;;;;10.10;9.40;;;21.10;53.80;;;;;;20871;6751;117186;-75
2023/09/16 02:06:07;;;;;;;8.97;8.37;;;21.00;53.70;;;;;;20853;6756;119699;-74
2023/09/16 02:08:44;;;;;;;9.47;8.77;;;20.80;54.10;;;;;;20821;6766;117508;-76
2023/09/16 02:11:20;;;;;;;10.75;10.05;;;20.60;54.50;;;;;;20483;6780;343719;-74
2023/09/16 02:13:58;;;;;;;10.17;9.53;;;20.90;54.60;;;;;;20871;6763;120112;-74
2023/09/16 02:16:33;;;;;;;11.10;10.40;;;21.20;54.20;;;;;;20665;6747;305680;-73
2023/09/16 02:19:08;;;;;;;10.40;9.70;;;21.10;54.10;;;;;;20795;6766;117539;-74
2023/09/16 02:21:45;;;;;;;10.30;9.40;;;20.90;54.30;;;;;;20738;6763;118256;-74
2023/09/16 02:24:20;;;;;;;10.43;9.53;;;20.90;54.30;;;;;;20858;6733;117591;-74
2023/09/16 02:26:56;;;;;;;11.80;11.00;;;20.70;54.50;;;;;;20671;6747;278000;-74
2023/09/16 02:29:35;;;;;;;10.23;9.63;;;20.90;54.50;;;;;;20669;6746;307353;-75
2023/09/16 02:32:10;;;;;;;9.97;9.17;;;21.30;53.90;;;;;;20656;6817;120456;-74
2023/09/16 02:34:46;;;;;;;9.50;8.90;;;21.30;53.90;;;;;;20825;6748;117392;-74
2023/09/16 02:37:21;;;;;;;9.80;9.10;;;21.00;54.20;;;;;;20862;6759;117873;-74
2023/09/16 02:39:57;;;;;;;11.13;10.33;;;20.80;54.40;;;;;;20562;6750;309681;-74
2023/09/16 02:42:32;;;;;;;9.80;9.10;;;21.00;54.30;;;;;;20766;6758;117866;-74
2023/09/16 02:45:08;;;;;;;11.13;10.43;;;21.00;54.20;;;;;;20609;6752;307731;-74
2023/09/16 02:47:44;;;;;;;9.97;9.37;;;21.20;53.70;;;;;;20824;6761;117936;-74
2023/09/16 02:50:19;;;;;;;10.50;9.80;;;21.10;53.70;;;;;;20589;6753;310954;-74
2023/09/16 02:52:55;;;;;;;9.60;8.90;;;21.20;53.30;;;;;;20799;6779;117467;-74
2023/09/16 02:55:30;;;;;;;10.87;10.17;;;21.10;53.50;;;;;;20732;6732;305463;-73
2023/09/16 02:58:06;;;;;;;8.70;8.10;;;21.20;52.90;;;;;;20850;6732;117566;-73
2023/09/16 03:00:46;;;;;;;9.93;9.33;;;21.10;53.00;;;;;;20618;6737;278908;-74
2023/09/16 03:03:21;;;;;;;9.27;8.67;;;21.10;53.00;;;;;;20859;6752;117016;-74
2023/09/16 03:05:54;;;;;;;8.40;7.70;;;20.80;53.50;;;;;;20827;6749;118726;-74
2023/09/16 03:08:30;;;;;;;8.53;7.93;;;20.70;53.40;;;;;;20800;6749;119933;-74
2023/09/16 03:11:07;;;;;;;8.93;8.33;;;20.50;53.80;;;;;;20797;6736;118202;-74
2023/09/16 03:13:42;;;;;;;8.93;8.33;;;20.30;54.10;;;;;;20870;6737;121832;-74
2023/09/16 03:16:19;;;;;;;9.43;8.37;;;20.20;54.40;;;;;;20849;6737;127013;-74
2023/09/16 03:18:54;;;;;;;8.93;8.40;;;20.00;54.60;;;;;;20849;6737;118059;-74
2023/09/16 03:21:30;;;;;;;9.23;8.37;;;20.00;54.90;;;;;;20782;6731;117684;-74
2023/09/16 03:24:06;;;;;;;8.97;8.37;;;19.90;55.00;;;;;;20909;6717;117316;-74
2023/09/16 03:26:42;;;;;;;11.13;10.43;;;20.10;55.00;;;;;;20664;6732;309587;-74
2023/09/16 03:29:19;;;;;;;9.87;9.27;;;20.10;55.00;;;;;;20920;6717;117269;-74
2023/09/16 03:31:53;;;;;;;11.33;10.63;;;20.20;54.80;;;;;;20525;6735;308092;-74
2023/09/16 03:34:29;;;;;;;11.30;10.60;;;20.80;54.10;;;;;;20626;6737;284893;-74
2023/09/16 03:37:05;;;;;;;11.80;11.02;;;20.70;53.40;;;;;;20704;6732;333881;-74
2023/09/16 03:39:40;;;;;;;12.30;11.50;;;21.00;52.80;;;;;;20708;6732;304991;-74
2023/09/16 03:42:16;;;;;;;11.67;10.97;;;21.20;52.30;;;;;;20694;6731;325838;-74
2023/09/16 03:44:52;;;;;;;9.53;8.93;;;21.30;51.90;;;;;;20927;6732;117401;-74
2023/09/16 03:47:27;;;;;;;10.23;9.43;;;21.00;52.40;;;;;;20909;6731;116888;-74
2023/09/16 03:50:03;;;;;;;10.73;10.02;;;20.50;53.10;;;;;;20665;6731;282958;-77
2023/09/16 03:52:42;;;;;;;10.20;9.60;;;20.60;53.30;;;;;;20922;6735;119724;-74
2023/09/16 03:55:15;;;;;;;10.65;9.95;;;20.50;53.60;;;;;;20715;6735;276065;-74
2023/09/16 03:57:50;;;;;;;11.43;10.63;;;20.60;53.60;;;;;;20706;6732;304991;-74
2023/09/16 04:00:26;;;;;;;10.35;9.75;;;20.90;53.30;;;;;;20608;6731;312704;-75
2023/09/16 04:03:04;;;;;;;9.23;8.63;;;21.20;53.00;;;;;;20921;6731;117092;-74
2023/09/16 04:05:37;;;;;;;9.90;9.20;;;20.90;53.10;;;;;;20923;6732;117672;-74
2023/09/16 04:08:12;;;;;;;10.03;9.40;;;20.60;53.60;;;;;;20908;6732;118127;-74
2023/09/16 04:10:48;;;;;;;10.30;9.50;;;20.30;54.00;;;;;;20846;6732;118037;-74
2023/09/16 04:13:23;;;;;;;10.70;9.97;;;20.20;54.50;;;;;;20706;6731;305784;-75
2023/09/16 04:15:59;;;;;;;10.23;9.43;;;20.40;54.70;;;;;;20889;6736;119420;-73
2023/09/16 04:18:35;;;;;;;12.50;11.70;;;20.30;54.20;;;;;;20594;6764;306585;-73
2023/09/16 04:21:10;;;;;;;12.55;11.65;;;20.50;54.00;;;;;;20582;6741;307502;-72
2023/09/16 04:23:46;;;;;;;11.43;10.43;;;20.70;53.50;;;;;;20888;6750;117724;-72
2023/09/16 04:26:22;;;;;;;11.43;10.73;;;20.50;53.80;;;;;;20699;6740;276374;-72
2023/09/16 04:28:58;;;;;;;11.40;10.70;;;20.50;53.80;;;;;;20694;6740;276418;-75
2023/09/16 04:31:34;;;;;;;13.27;12.37;;;21.00;52.50;;;;;;20537;6727;308149;-72
2023/09/16 04:34:09;;;;;;;11.93;11.17;;;21.00;52.50;;;;;;20713;6727;306521;-72
2023/09/16 04:36:45;;;;;;;11.57;10.77;;;21.10;52.50;;;;;;20938;6727;120599;-71
2023/09/16 04:39:23;;;;;;;10.77;10.17;;;20.80;52.80;;;;;;20668;6742;282542;-71
2023/09/16 04:41:56;;;;;;;12.70;11.80;;;20.80;53.20;;;;;;20540;6742;336154;-72
2023/09/16 04:44:38;;;;;;;12.00;11.17;;;20.90;52.50;;;;;;20836;6742;119330;-73
2023/09/16 04:47:07;;;;;;;10.33;9.53;;;20.70;52.80;;;;;;20851;6742;117335;-73
2023/09/16 04:49:43;;;;;;;11.17;10.27;;;20.30;53.50;;;;;;20896;6742;117613;-74
2023/09/16 04:52:19;;;;;;;11.53;10.73;;;19.70;54.30;;;;;;20875;6742;117593;-74
2023/09/16 04:54:55;;;;;;;11.93;10.97;;;19.60;54.00;;;;;;20895;6742;117891;-74
2023/09/16 04:57:30;;;;;;;14.07;13.07;;;19.30;54.20;;;;;;20683;6742;276703;-74
2023/09/16 05:00:06;;;;;;;15.05;14.05;;;19.50;54.50;;;;;;20565;6765;337665;-74
2023/09/16 05:02:43;;;;;;;13.37;12.17;;;19.80;54.10;;;;;;20705;6779;118714;-73
2023/09/16 05:05:18;;;;;;;14.07;12.87;;;19.10;54.80;;;;;;20900;6735;117075;-73
2023/09/16 05:07:54;;;;;;;12.90;11.83;;;18.80;55.40;;;;;;20842;6759;117806;-74
2023/09/16 05:10:30;;;;;;;15.83;14.63;;;18.80;55.40;;;;;;20565;6751;314497;-74
2023/09/16 05:13:06;;;;;;;16.12;14.93;;;18.90;56.90;;;;;;20533;6780;311647;-74
2023/09/16 05:15:41;;;;;;;14.80;13.33;;;19.30;56.20;;;;;;20761;6780;117572;-74
2023/09/16 05:18:18;;;;;;;9.90;9.20;;;18.90;57.00;;;;;;20877;6742;118154;-74
2023/09/16 05:20:53;;;;;;;16.03;14.80;;;18.90;57.10;;;;;;20528;6745;308350;-72
2023/09/16 05:23:30;;;;;;;13.40;12.37;;;19.10;57.30;;;;;;20816;6752;117423;-76
2023/09/16 05:26:05;;;;;;;13.93;12.80;;;19.00;57.20;;;;;;20825;6745;117923;-74
2023/09/16 05:28:40;;;;;;;15.30;14.20;;;18.80;57.50;;;;;;20661;6732;276918;-73
2023/09/16 05:31:25;;;;;;;15.63;14.47;;;19.00;58.10;;;;;;20451;6776;279028;-74
2023/09/16 05:33:51;;;;;;;15.00;13.85;;;19.40;57.50;;;;;;20598;6763;310404;-73
2023/09/16 05:36:28;;;;;;;15.67;14.57;;;20.00;56.10;;;;;;20546;6752;276986;-74
2023/09/16 05:39:06;;;;;;;14.67;13.63;;;19.90;56.00;;;;;;20578;6753;307801;-74
2023/09/16 05:41:40;;;;;;;15.77;14.57;;;20.10;55.70;;;;;;20438;6763;280366;-70
2023/09/16 05:44:25;;;;;;;14.40;13.40;;;20.10;57.20;;;;;;20821;6734;121956;-70
2023/09/16 05:46:58;;;;;;;17.10;15.82;;;20.10;56.50;;;;;;20684;6732;307533;-71
2023/09/16 05:49:28;;;;;;;14.60;13.50;;;20.30;56.50;;;;;;20935;6716;118644;-71
2023/09/16 05:52:05;;;;;;;15.48;14.38;;;20.60;56.00;;;;;;20455;6731;290678;-71
2023/09/16 05:54:40;;;;;;;15.97;14.77;;;20.60;56.00;;;;;;20653;6720;277243;-70
2023/09/16 05:57:16;;;;;;;12.87;11.97;;;21.00;55.20;;;;;;20870;6729;117382;-72
2023/09/16 05:59:54;;;;;;;12.10;11.17;;;21.00;55.40;;;;;;20863;6724;116354;-70
2023/09/16 06:02:39;;;;;;;13.50;12.60;;;20.90;55.90;;;;;;20719;6724;278282;-71
2023/09/16 06:05:03;;;;;;;12.70;11.80;;;21.10;55.00;;;;;;20683;6729;306679;-71
2023/09/16 06:07:39;;;;;;;11.75;11.05;;;22.00;53.60;;;;;;20616;6752;306783;-71
2023/09/16 06:10:15;;;;;;;9.60;9.00;;;21.90;53.50;;;;;;20827;6731;117722;-73
2023/09/16 06:12:51;;;;;;;9.37;8.57;;;22.00;53.70;;;;;;20676;6751;121179;-72
2023/09/16 06:15:26;;;;;;;8.40;7.80;;;21.80;53.90;;;;;;20818;6735;123248;-72
2023/09/16 06:18:07;;;;;;;8.73;8.07;;;21.70;54.00;;;;;;20864;6725;117002;-73
2023/09/16 06:20:37;;;;;;;9.40;8.80;;;21.60;54.20;;;;;;20557;6725;278861;-74
2023/09/16 06:23:16;;;;;;;8.53;7.93;;;22.00;53.70;;;;;;20863;6724;117928;-75
2023/09/16 06:25:51;;;;;;;8.80;8.30;;;21.90;52.90;;;;;;20672;6724;275329;-74
2023/09/16 06:28:30;;;;;;;8.87;8.07;;;22.30;51.90;;;;;;20799;6739;117960;-74
2023/09/16 06:31:02;;;;;;;9.03;8.53;;;22.30;52.10;;;;;;20476;6740;310453;-72
2023/09/16 06:33:41;;;;;;;7.90;7.43;;;22.60;51.30;;;;;;20858;6724;117502;-72
2023/09/16 06:36:14;;;;;;;8.17;7.50;;;22.70;51.60;;;;;;20801;6737;118403;-74
2023/09/16 06:38:49;;;;;;;8.93;8.43;;;22.60;51.90;;;;;;20621;6732;307477;-74
2023/09/16 06:41:29;;;;;;;9.20;8.63;;;22.90;50.60;;;;;;20531;6733;320327;-75
2023/09/16 06:44:02;;;;;;;8.47;7.87;;;23.40;49.60;;;;;;20842;6733;117909;-75
2023/09/16 06:46:40;;;;;;;7.63;7.07;;;23.30;50.60;;;;;;20857;6731;122703;-73
2023/09/16 06:49:15;;;;;;;8.37;7.73;;;23.00;51.20;;;;;;20849;6749;116992;-74
2023/09/16 06:51:51;;;;;;;7.63;7.23;;;22.90;51.40;;;;;;20700;6749;119383;-73
2023/09/16 06:54:27;;;;;;;8.87;8.27;;;22.90;51.40;;;;;;20676;6729;278075;-74
2023/09/16 06:57:03;;;;;;;9.00;8.30;;;23.80;49.70;;;;;;20672;6729;289011;-73
2023/09/16 06:59:39;;;;;;;9.55;8.95;;;23.80;49.70;;;;;;20709;6729;306123;-73
2023/09/16 07:02:14;;;;;;;7.43;7.03;;;24.30;49.00;;;;;;20653;6817;118574;-73
2023/09/16 07:04:50;;;;;;;8.20;7.70;;;24.30;49.30;;;;;;20951;6722;123180;-73
2023/09/16 07:07:26;;;;;;;9.47;8.77;;;24.10;49.80;;;;;;20861;6760;116975;-72
2023/09/16 07:10:02;;;;;;;8.83;8.23;;;24.30;49.70;;;;;;20650;6749;308502;-73
2023/09/16 07:12:38;;;;;;;9.13;8.63;;;24.80;49.10;;;;;;20667;6748;310353;-73
2023/09/16 07:15:14;;;;;;;8.70;7.90;;;24.80;49.00;;;;;;20933;6732;117002;-73
2023/09/16 07:17:50;;;;;;;7.43;7.00;;;24.80;49.60;;;;;;20830;6763;118351;-73
2023/09/16 07:20:26;;;;;;;7.53;7.00;;;24.80;49.60;;;;;;20790;6739;117862;-73
2023/09/16 07:23:01;;;;;;;8.90;8.30;;;24.70;49.90;;;;;;20871;6731;118230;-73
2023/09/16 07:25:37;;;;;;;10.17;9.57;;;24.60;50.00;;;;;;20677;6732;277660;-72
2023/09/16 07:28:13;;;;;;;11.43;10.73;;;25.00;49.10;;;;;;20644;6744;307107;-74
2023/09/16 07:30:48;;;;;;;10.20;9.50;;;25.60;48.00;;;;;;20567;6741;309665;-73
2023/09/16 07:33:24;;;;;;;9.63;9.13;;;26.00;47.00;;;;;;20673;6733;293334;-71
2023/09/16 07:35:59;;;;;;;9.87;9.27;;;26.40;46.10;;;;;;20723;6716;310498;-73
2023/09/16 07:38:35;;;;;;;8.70;8.20;;;26.60;45.50;;;;;;20660;6731;277784;-73
2023/09/16 07:41:11;;;;;;;10.93;10.23;;;26.90;45.40;;;;;;20553;6733;339048;-73
2023/09/16 07:43:46;;;;;;;10.07;9.37;;;27.10;44.80;;;;;;20837;6748;117477;-72
2023/09/16 07:46:22;;;;;;;9.80;9.03;;;26.90;45.50;;;;;;20796;6746;121094;-73
2023/09/16 07:48:59;;;;;;;10.23;9.53;;;26.10;47.20;;;;;;20880;6747;116975;-73
2023/09/16 07:51:34;;;;;;;12.07;11.27;;;26.00;46.80;;;;;;20553;6749;309093;-72
2023/09/16 07:54:09;;;;;;;9.30;8.70;;;26.20;46.50;;;;;;20651;6759;310225;-73
2023/09/16 07:56:45;;;;;;;11.67;10.97;;;26.80;45.40;;;;;;20711;6731;277067;-73
2023/09/16 07:59:21;;;;;;;11.50;10.80;;;26.80;45.40;;;;;;20687;6738;276193;-73
2023/09/16 08:01:57;;;;;;;9.30;8.67;;;27.00;45.20;;;;;;20744;6733;117906;-73
2023/09/16 08:04:35;;;;;;;11.23;10.53;;;26.80;45.70;;;;;;20639;6746;280500;-73
2023/09/16 08:07:08;;;;;;;10.93;10.23;;;26.90;45.80;;;;;;20713;6733;308943;-72
2023/09/16 08:09:43;;;;;;;10.40;9.70;;;27.20;45.40;;;;;;20717;6729;307887;-71
2023/09/16 08:12:19;;;;;;;10.65;10.05;;;27.50;44.80;;;;;;20742;6714;342801;-74
2023/09/16 08:14:54;;;;;;;9.23;8.63;;;27.80;44.20;;;;;;20673;6730;307179;-73
2023/09/16 08:17:30;;;;;;;9.37;8.77;;;27.90;44.00;;;;;;20669;6732;307386;-73
2023/09/16 08:20:06;;;;;;;7.33;6.87;;;28.00;44.20;;;;;;20879;6729;117719;-72
2023/09/16 08:22:42;;;;;;;9.40;8.88;;;27.90;44.80;;;;;;20722;6730;280160;-73
2023/09/16 08:25:17;;;;;;;8.93;8.43;;;28.00;44.20;;;;;;20764;6718;313754;-74
2023/09/16 08:27:56;;;;;;;7.75;7.30;;;28.20;43.70;;;;;;20766;6717;305887;-73
2023/09/16 08:30:28;;;;;;;7.90;7.40;;;28.40;43.40;;;;;;20905;6716;117383;-73
2023/09/16 08:33:04;;;;;;;8.00;7.50;;;28.30;44.00;;;;;;20964;6720;116806;-74
2023/09/16 08:35:39;;;;;;;9.60;9.00;;;28.00;44.70;;;;;;20682;6730;279004;-74
2023/09/16 08:38:15;;;;;;;9.00;8.20;;;28.00;45.00;;;;;;20903;6732;117323;-73
2023/09/16 08:40:51;;;;;;;9.77;9.17;;;27.90;45.70;;;;;;20652;6724;278062;-72
2023/09/16 08:43:30;;;;;;;8.33;7.83;;;28.30;43.80;;;;;;20753;6717;310322;-73
2023/09/16 08:46:06;;;;;;;7.60;7.10;;;28.30;43.80;;;;;;20602;6745;277887;-73
2023/09/16 08:48:41;;;;;;;7.53;7.03;;;28.60;43.30;;;;;;20975;6714;117086;-73
2023/09/16 08:51:17;;;;;;;8.00;7.50;;;28.50;44.30;;;;;;20579;6734;283642;-73
2023/09/16 08:53:52;;;;;;;7.83;7.33;;;28.60;44.80;;;;;;20881;6732;118544;-73
2023/09/16 08:56:28;;;;;;;7.47;6.97;;;28.70;45.10;;;;;;20959;6717;117350;-73
2023/09/16 08:59:03;;;;;;;7.40;6.73;;;28.50;45.50;;;;;;20960;6729;119674;-72
2023/09/16 09:01:39;;;;;;;8.13;7.63;;;28.40;45.80;;;;;;20808;6721;123086;-74
2023/09/16 09:04:15;;;;;;;8.43;7.93;;;28.30;45.80;;;;;;20730;6721;305579;-76
2023/09/16 09:06:50;;;;;;;7.93;7.43;;;28.60;45.50;;;;;;20752;6721;290227;-72
2023/09/16 09:09:29;;;;;;;7.70;7.00;;;29.00;43.30;;;;;;20980;6717;116802;-73
2023/09/16 09:12:04;;;;;;;7.37;6.97;;;29.00;43.80;;;;;;20516;6717;311332;-76
2023/09/16 09:14:40;;;;;;;6.87;6.47;;;29.30;43.40;;;;;;20975;6717;117091;-73
2023/09/16 09:20:51;;;;;;;7.93;7.53;;;29.10;43.80;;;;;;20601;6724;282281;-73
2023/09/16 09:23:27;;;;;;;7.33;6.93;;;29.30;43.80;;;;;;20890;6732;117075;-72
2023/09/16 09:26:06;;;;;;;6.80;6.40;;;29.40;44.00;;;;;;20927;6733;124129;-73
2023/09/16 09:28:39;;;;;;;6.70;6.20;;;29.30;44.30;;;;;;20832;6745;117223;-73
2023/09/16 09:31:14;;;;;;;6.63;6.33;;;29.20;44.30;;;;;;20814;6729;117382;-73
2023/09/16 09:33:54;;;;;;;6.97;6.57;;;29.50;43.10;;;;;;20713;6733;306042;-72
2023/09/16 09:36:27;;;;;;;6.27;5.97;;;29.50;43.10;;;;;;20867;6732;117903;-74
2023/09/16 09:39:03;;;;;;;6.40;5.87;;;29.70;42.90;;;;;;20890;6730;117053;-74
2023/09/16 09:41:46;;;;;;;6.30;5.90;;;29.80;41.70;;;;;;20597;6725;312656;-72
2023/09/16 09:44:19;;;;;;;6.10;5.80;;;29.80;41.70;;;;;;20737;6717;334917;-73
2023/09/16 09:46:54;;;;;;;6.20;5.90;;;30.10;40.90;;;;;;20763;6715;335383;-75
2023/09/16 09:49:30;;;;;;;5.63;5.33;;;30.40;40.80;;;;;;20980;6717;116871;-73
2023/09/16 09:52:06;;;;;;;5.80;5.50;;;30.10;41.90;;;;;;20780;6729;145050;-73
2023/09/16 09:54:45;;;;;;;5.47;5.10;;;30.00;41.60;;;;;;20877;6730;117316;-74
2023/09/16 09:57:17;;;;;;;5.30;5.00;;;29.90;42.30;;;;;;20673;6733;277635;-73
2023/09/16 09:59:53;;;;;;;5.40;5.17;;;30.10;41.40;;;;;;20894;6733;116975;-73
2023/09/16 10:02:30;;;;;;;5.50;5.30;;;30.20;41.70;;;;;;20630;6736;307489;-72
2023/09/16 10:05:06;;;;;;;5.57;5.37;;;30.50;41.10;;;;;;20728;6725;306867;-73
2023/09/16 10:07:42;;;;;;;5.20;4.90;;;30.80;40.50;;;;;;20930;6718;122299;-74
2023/09/16 10:10:18;;;;;;;5.53;5.23;;;30.80;40.80;;;;;;20881;6727;122121;-74
2023/09/16 10:12:56;;;;;;;5.37;5.07;;;30.70;41.10;;;;;;20977;6716;117408;-73
2023/09/16 10:15:31;;;;;;;4.87;4.68;;;30.60;41.30;;;;;;20755;6715;335474;-73
2023/09/16 10:18:07;;;;;;;4.23;4.03;;;30.80;39.80;;;;;;20931;6717;116839;-73
2023/09/16 10:20:45;;;;;;;4.90;4.60;;;30.90;39.80;;;;;;20642;6729;309338;-73
2023/09/16 10:23:18;;;;;;;5.17;4.93;;;31.10;38.80;;;;;;20693;6733;277798;-74
2023/09/16 10:25:54;;;;;;;5.00;4.50;;;31.30;38.00;;;;;;20878;6737;118993;-72
2023/09/16 10:28:32;;;;;;;5.10;4.80;;;31.30;38.80;;;;;;20639;6736;310262;-73
2023/09/16 10:31:05;;;;;;;4.83;4.53;;;31.40;38.70;;;;;;20574;6737;306529;-73
2023/09/16 10:33:41;;;;;;;4.63;4.43;;;31.90;37.50;;;;;;20704;6737;306009;-74
2023/09/16 10:36:17;;;;;;;4.60;4.40;;;31.90;37.50;;;;;;20897;6737;117411;-74
2023/09/16 10:38:52;;;;;;;4.40;4.20;;;31.80;37.80;;;;;;20920;6737;118663;-74
2023/09/16 10:41:31;;;;;;;3.27;3.17;;;31.60;38.20;;;;;;20757;6737;117856;-74
2023/09/16 10:44:07;;;;;;;3.00;2.90;;;31.30;37.80;;;;;;20898;6737;118357;-74
2023/09/16 10:46:43;;;;;;;3.60;3.50;;;31.10;35.60;;;;;;20697;6737;307091;-74
2023/09/16 10:49:21;;;;;;;3.00;2.90;;;31.20;35.60;;;;;;20915;6737;117543;-74
2023/09/16 10:51:54;;;;;;;3.40;3.20;;;31.10;36.00;;;;;;20709;6737;117889;-74
2023/09/16 10:54:30;;;;;;;2.93;2.83;;;31.00;36.50;;;;;;20903;6737;119349;-74
2023/09/16 10:57:05;;;;;;;2.90;2.80;;;30.80;36.90;;;;;;20706;6737;305065;-73
2023/09/16 10:59:42;;;;;;;2.63;2.53;;;31.00;35.30;;;;;;20917;6737;116972;-73
2023/09/16 11:02:18;;;;;;;3.07;2.97;;;31.10;35.70;;;;;;20682;6737;275848;-73
2023/09/16 11:04:53;;;;;;;3.00;2.90;;;31.30;34.20;;;;;;20917;6737;117760;-73
2023/09/16 11:07:29;;;;;;;3.30;3.20;;;31.30;35.10;;;;;;20696;6737;304551;-74
2023/09/16 11:10:05;;;;;;;2.80;2.70;;;31.40;35.00;;;;;;20655;6737;278735;-76
2023/09/16 11:12:40;;;;;;;3.00;2.80;;;31.60;33.60;;;;;;20701;6737;276215;-73
2023/09/16 11:15:17;;;;;;;3.20;3.10;;;31.80;33.50;;;;;;20915;6737;117637;-73
2023/09/16 11:17:51;;;;;;;3.10;2.90;;;31.60;34.30;;;;;;20920;6737;118117;-73
2023/09/16 11:20:32;;;;;;;2.70;2.60;;;31.50;33.10;;;;;;20613;6737;294545;-74
2023/09/16 11:23:07;;;;;;;1.80;1.80;;;31.50;33.10;;;;;;20920;6737;117578;-74
2023/09/16 11:25:43;;;;;;;1.90;1.90;;;31.40;33.10;;;;;;20925;6737;117417;-76
2023/09/16 11:28:18;;;;;;;2.50;2.30;;;31.30;33.10;;;;;;20898;6737;117709;-71
2023/09/16 11:30:57;;;;;;;4.03;2.40;;;31.10;33.70;;;;;;20810;6737;117287;-73
2023/09/16 11:33:37;;;;;;;2.30;2.20;;;30.90;34.20;;;;;;20704;6737;280377;-75
2023/09/16 11:36:17;;;;;;;2.83;2.63;;;31.10;33.30;;;;;;20686;6737;276530;-74
2023/09/16 11:38:58;;;;;;;4.03;3.73;;;31.40;33.70;;;;;;20905;6737;118620;-74
2023/09/16 11:41:32;;;;;;;3.20;3.00;;;31.50;33.80;;;;;;20511;6778;281432;-76
2023/09/16 11:44:07;;;;;;;2.70;2.60;;;31.50;33.10;;;;;;20602;6758;308804;-74
2023/09/16 11:46:43;;;;;;;2.40;2.30;;;31.70;32.60;;;;;;20854;6761;118547;-74
2023/09/16 11:49:20;;;;;;;3.03;2.83;;;31.60;33.20;;;;;;20703;6726;294734;-74
2023/09/16 11:51:54;;;;;;;2.73;2.63;;;31.50;33.10;;;;;;20544;6731;307622;-74
2023/09/16 11:54:29;;;;;;;2.73;2.63;;;31.60;32.30;;;;;;20915;6736;119300;-73
2023/09/16 11:57:08;;;;;;;2.92;2.83;;;31.50;32.80;;;;;;20664;6749;308041;-73
2023/09/16 11:59:41;;;;;;;2.37;2.27;;;31.50;32.50;;;;;;20904;6741;117076;-73
2023/09/16 12:02:16;;;;;;;2.70;2.50;;;31.40;33.40;;;;;;20884;6741;117056;-72
2023/09/16 12:04:52;;;;;;;2.90;2.80;;;31.10;33.80;;;;;;20643;6742;295563;-74
2023/09/16 12:07:27;;;;;;;3.07;2.97;;;31.20;34.10;;;;;;20682;6743;306464;-76
2023/09/16 12:10:03;;;;;;;3.10;3.00;;;31.40;34.00;;;;;;20598;6756;310596;-73
2023/09/16 12:12:39;;;;;;;3.17;3.00;;;31.60;33.80;;;;;;20696;6741;306490;-74
2023/09/16 12:15:15;;;;;;;3.30;3.00;;;32.00;33.40;;;;;;20748;6726;304386;-72
2023/09/16 12:17:56;;;;;;;3.30;3.10;;;31.90;33.30;;;;;;20859;6757;118165;-74
2023/09/16 12:20:26;;;;;;;3.10;2.87;;;31.70;33.50;;;;;;20882;6725;118505;-74
2023/09/16 12:23:02;;;;;;;3.20;3.00;;;31.40;34.20;;;;;;20953;6725;117389;-73
2023/09/16 12:25:41;;;;;;;3.27;3.10;;;31.10;34.80;;;;;;20690;6726;311952;-73
2023/09/16 12:28:16;;;;;;;3.30;3.10;;;31.20;35.40;;;;;;20883;6726;117975;-73
2023/09/16 12:30:55;;;;;;;3.10;2.90;;;31.10;34.60;;;;;;20658;6726;279124;-72
2023/09/16 12:33:45;;;;;;;3.03;2.93;;;31.30;34.90;;;;;;20909;6726;117864;-74
2023/09/16 12:36:28;;;;;;;3.20;3.00;;;31.20;34.90;;;;;;20914;6716;118065;-74
2023/09/16 12:39:04;;;;;;;5.17;3.10;;;30.90;35.50;;;;;;20937;6716;117076;-72
2023/09/16 12:41:43;;;;;;;3.17;3.07;;;30.70;36.10;;;;;;20819;6716;117733;-73
2023/09/16 12:44:17;;;;;;;2.97;2.87;;;30.60;36.20;;;;;;20923;6716;117036;-73
2023/09/16 12:46:52;;;;;;;2.90;2.80;;;30.50;36.00;;;;;;20933;6716;117433;-74
2023/09/16 12:49:28;;;;;;;3.60;3.30;;;30.40;36.20;;;;;;20937;6716;117071;-74
2023/09/16 12:52:04;;;;;;;2.80;2.70;;;30.30;36.30;;;;;;20714;6731;269157;-73
2023/09/16 12:54:45;;;;;;;3.27;3.10;;;30.30;36.10;;;;;;20678;6731;280857;-74
2023/09/16 12:57:19;;;;;;;2.93;2.83;;;30.50;35.70;;;;;;20951;6726;117542;-73
2023/09/16 13:00:03;;;;;;;3.00;2.90;;;30.80;34.70;;;;;;20706;6731;308937;-73
2023/09/16 13:02:37;;;;;;;2.80;2.70;;;30.80;34.60;;;;;;20926;6731;117471;-72
2023/09/16 13:05:14;;;;;;;3.07;2.97;;;30.80;35.10;;;;;;20773;6716;310110;-74
2023/09/16 13:07:53;;;;;;;3.07;2.60;;;30.90;34.60;;;;;;20942;6731;116930;-72
2023/09/16 13:10:29;;;;;;;2.80;2.67;;;31.00;33.80;;;;;;20615;6731;279098;-74
2023/09/16 13:13:07;;;;;;;2.65;2.55;;;31.00;33.80;;;;;;20641;6744;296069;-74
2023/09/16 13:15:40;;;;;;;2.70;2.60;;;31.20;33.70;;;;;;20894;6744;117490;-74
2023/09/16 13:18:16;;;;;;;2.73;2.63;;;31.10;34.20;;;;;;20668;6729;279866;-74